sensor_id;sensor_type;location;lat;lon;timestamp;pressure;altitude;pressure_sealevel;temperature;humidity
10145;BME280;5113;41.822;23.564;2023-05-02T00:03:06;-11145.47;;;7.63;100.00
10145;BME280;5113;41.822;23.564;2023-05-02T00:06:12;-11144.47;;;7.60;100.00
10145;BME280;5113;41.822;23.564;2023-05-02T00:09:18;-11144.47;;;7.60;100.00
10145;BME280;5113;41.822;23.564;2023-05-02T00:12:25;-11153.19;;;7.91;100.00
10145;BME280;5113;41.822;23.564;2023-05-02T00:15:31;-11150.09;;;7.80;100.00
10145;BME280;5113;41.822;23.564;2023-05-02T00:18:38;-11157.97;;;8.09;100.00
10145;BME280;5113;41.822;23.564;2023-05-02T00:21:46;-11147.97;;;7.73;100.00
10145;BME280;5113;41.822;23.564;2023-05-02T00:24:55;-11151.50;;;7.85;100.00
10145;BME280;5113;41.822;23.564;2023-05-02T00:28:02;-11155.44;;;8.00;100.00
10145;BME280;5113;41.822;23.564;2023-05-02T00:31:08;-11159.66;;;8.15;100.00
10145;BME280;5113;41.822;23.564;2023-05-02T00:34:16;-11163.44;;;8.28;100.00
10145;BME280;5113;41.822;23.564;2023-05-02T00:37:25;-11161.06;;;8.20;100.00
10145;BME280;5113;41.822;23.564;2023-05-02T00:40:41;-11155.16;;;7.99;100.00
10145;BME280;5113;41.822;23.564;2023-05-02T00:43:48;-11154.31;;;7.95;100.00
10145;BME280;5113;41.822;23.564;2023-05-02T00:46:54;-11162.59;;;8.25;100.00
10145;BME280;5113;41.822;23.564;2023-05-02T00:50:03;-11157.41;;;8.07;100.00
10145;BME280;5113;41.822;23.564;2023-05-02T00:53:09;-11164.00;;;8.31;100.00
10145;BME280;5113;41.822;23.564;2023-05-02T00:56:16;-11152.34;;;7.88;100.00
10145;BME280;5113;41.822;23.564;2023-05-02T00:59:22;-11159.38;;;8.14;100.00
10145;BME280;5113;41.822;23.564;2023-05-02T01:02:33;-11162.88;;;8.26;100.00
10145;BME280;5113;41.822;23.564;2023-05-02T01:05:48;-11161.19;;;8.20;100.00
10145;BME280;5113;41.822;23.564;2023-05-02T01:09:04;-11162.75;;;8.26;100.00
10145;BME280;5113;41.822;23.564;2023-05-02T01:12:18;-11160.50;;;8.18;100.00
10145;BME280;5113;41.822;23.564;2023-05-02T01:15:27;-11158.38;;;8.10;100.00
10145;BME280;5113;41.822;23.564;2023-05-02T01:18:35;-11159.66;;;8.15;100.00
10145;BME280;5113;41.822;23.564;2023-05-02T01:21:45;-11163.59;;;8.29;100.00
10145;BME280;5113;41.822;23.564;2023-05-02T01:24:59;-11165.56;;;8.36;100.00
10145;BME280;5113;41.822;23.564;2023-05-02T01:28:16;-11151.50;;;7.85;100.00
10145;BME280;5113;41.822;23.564;2023-05-02T01:31:30;-11145.19;;;7.62;100.00
10145;BME280;5113;41.822;23.564;2023-05-02T01:34:39;-11144.19;;;7.59;100.00
10145;BME280;5113;41.822;23.564;2023-05-02T01:37:48;-11154.03;;;7.94;100.00
10145;BME280;5113;41.822;23.564;2023-05-02T01:40:58;-11166.53;;;8.40;100.00
10145;BME280;5113;41.822;23.564;2023-05-02T01:44:07;-11162.19;;;8.24;100.00
10145;BME280;5113;41.822;23.564;2023-05-02T01:47:16;-11156.56;;;8.04;100.00
10145;BME280;5113;41.822;23.564;2023-05-02T01:50:25;-11160.50;;;8.18;100.00
10145;BME280;5113;41.822;23.564;2023-05-02T01:53:33;-11160.06;;;8.16;100.00
10145;BME280;5113;41.822;23.564;2023-05-02T01:56:41;-11150.38;;;7.81;100.00
10145;BME280;5113;41.822;23.564;2023-05-02T01:59:49;-11156.69;;;8.04;100.00
10145;BME280;5113;41.822;23.564;2023-05-02T02:02:58;-11149.53;;;7.78;100.00
10145;BME280;5113;41.822;23.564;2023-05-02T02:06:05;-11156.56;;;8.04;100.00
10145;BME280;5113;41.822;23.564;2023-05-02T02:09:12;-11155.72;;;8.01;100.00
10145;BME280;5113;41.822;23.564;2023-05-02T02:12:23;-11152.19;;;7.88;100.00
10145;BME280;5113;41.822;23.564;2023-05-02T02:15:33;-11153.47;;;7.92;100.00
10145;BME280;5113;41.822;23.564;2023-05-02T02:18:44;-11151.06;;;7.84;100.00
10145;BME280;5113;41.822;23.564;2023-05-02T02:21:51;-11140.81;;;7.47;100.00
10145;BME280;5113;41.822;23.564;2023-05-02T02:24:59;-11142.22;;;7.52;100.00
10145;BME280;5113;41.822;23.564;2023-05-02T02:28:06;-11145.88;;;7.65;100.00
10145;BME280;5113;41.822;23.564;2023-05-02T02:31:12;-11144.63;;;7.60;100.00
10145;BME280;5113;41.822;23.564;2023-05-02T02:34:20;-11137.31;;;7.34;100.00
10145;BME280;5113;41.822;23.564;2023-05-02T02:37:30;-11139.69;;;7.43;100.00
10145;BME280;5113;41.822;23.564;2023-05-02T02:40:42;-11135.47;;;7.27;100.00
10145;BME280;5113;41.822;23.564;2023-05-02T02:43:59;-11136.59;;;7.32;100.00
10145;BME280;5113;41.822;23.564;2023-05-02T02:47:09;-11132.94;;;7.18;100.00
10145;BME280;5113;41.822;23.564;2023-05-02T02:50:22;-11128.47;;;7.02;100.00
10145;BME280;5113;41.822;23.564;2023-05-02T02:53:33;-11136.47;;;7.31;100.00
10145;BME280;5113;41.822;23.564;2023-05-02T02:56:50;-11125.50;;;6.91;100.00
10145;BME280;5113;41.822;23.564;2023-05-02T03:00:06;-11117.50;;;6.62;100.00
10145;BME280;5113;41.822;23.564;2023-05-02T03:03:14;-11126.91;;;6.96;100.00
10145;BME280;5113;41.822;23.564;2023-05-02T03:06:24;-11134.50;;;7.24;100.00
10145;BME280;5113;41.822;23.564;2023-05-02T03:09:40;-11134.34;;;7.23;100.00
10145;BME280;5113;41.822;23.564;2023-05-02T03:12:46;-11128.19;;;7.01;100.00
10145;BME280;5113;41.822;23.564;2023-05-02T03:19:43;-11119.59;;;6.70;100.00
10145;BME280;5113;41.822;23.564;2023-05-02T03:22:52;-11125.09;;;6.90;100.00
10145;BME280;5113;41.822;23.564;2023-05-02T03:25:58;-11128.47;;;7.02;100.00
10145;BME280;5113;41.822;23.564;2023-05-02T03:29:04;-11120.03;;;6.72;100.00
10145;BME280;5113;41.822;23.564;2023-05-02T03:32:10;-11122.84;;;6.82;100.00
10145;BME280;5113;41.822;23.564;2023-05-02T03:35:16;-11129.59;;;7.06;100.00
10145;BME280;5113;41.822;23.564;2023-05-02T03:38:24;-11132.66;;;7.17;100.00
10145;BME280;5113;41.822;23.564;2023-05-02T03:41:30;-11133.78;;;7.21;100.00
10145;BME280;5113;41.822;23.564;2023-05-02T03:44:36;-11124.66;;;6.88;100.00
10145;BME280;5113;41.822;23.564;2023-05-02T03:47:42;-11127.91;;;7.00;100.00
10145;BME280;5113;41.822;23.564;2023-05-02T03:50:49;-11129.59;;;7.06;100.00
10145;BME280;5113;41.822;23.564;2023-05-02T03:53:57;-11134.91;;;7.25;100.00
10145;BME280;5113;41.822;23.564;2023-05-02T03:57:03;-11133.66;;;7.21;100.00
10145;BME280;5113;41.822;23.564;2023-05-02T04:00:10;-11134.91;;;7.25;100.00
10145;BME280;5113;41.822;23.564;2023-05-02T04:03:17;-11133.50;;;7.20;100.00
10145;BME280;5113;41.822;23.564;2023-05-02T04:06:23;-11128.59;;;7.03;100.00
10145;BME280;5113;41.822;23.564;2023-05-02T04:09:31;-11130.69;;;7.10;100.00
10145;BME280;5113;41.822;23.564;2023-05-02T04:12:37;-11127.63;;;6.99;100.00
10145;BME280;5113;41.822;23.564;2023-05-02T04:15:44;-11135.47;;;7.27;100.00
10145;BME280;5113;41.822;23.564;2023-05-02T04:18:50;-11129.88;;;7.07;100.00
10145;BME280;5113;41.822;23.564;2023-05-02T04:21:57;-11128.31;;;7.02;100.00
10145;BME280;5113;41.822;23.564;2023-05-02T04:25:05;-11122.13;;;6.79;100.00
10145;BME280;5113;41.822;23.564;2023-05-02T04:28:11;-11093.91;;;5.77;100.00
10145;BME280;5113;41.822;23.564;2023-05-02T04:31:17;-11126.22;;;6.94;100.00
10145;BME280;5113;41.822;23.564;2023-05-02T04:34:24;-11130.97;;;7.11;100.00
10145;BME280;5113;41.822;23.564;2023-05-02T04:37:31;-11137.31;;;7.34;100.00
10145;BME280;5113;41.822;23.564;2023-05-02T04:40:39;-11133.94;;;7.22;100.00
10145;BME280;5113;41.822;23.564;2023-05-02T04:43:45;-11134.34;;;7.23;100.00
10145;BME280;5113;41.822;23.564;2023-05-02T04:46:51;-11140.13;;;7.44;100.00
10145;BME280;5113;41.822;23.564;2023-05-02T04:49:58;-11138.28;;;7.38;100.00
10145;BME280;5113;41.822;23.564;2023-05-02T04:53:05;-11145.31;;;7.63;100.00
10145;BME280;5113;41.822;23.564;2023-05-02T04:56:12;-11139.97;;;7.44;100.00
10145;BME280;5113;41.822;23.564;2023-05-02T04:59:19;-11140.25;;;7.45;100.00
10145;BME280;5113;41.822;23.564;2023-05-02T05:02:25;-11150.38;;;7.81;100.00
10145;BME280;5113;41.822;23.564;2023-05-02T05:05:32;-11151.78;;;7.86;100.00
10145;BME280;5113;41.822;23.564;2023-05-02T05:08:38;-11142.66;;;7.53;100.00
10145;BME280;5113;41.822;23.564;2023-05-02T05:11:45;-11131.81;;;7.14;100.00
10145;BME280;5113;41.822;23.564;2023-05-02T05:14:52;-11136.88;;;7.33;100.00
10145;BME280;5113;41.822;23.564;2023-05-02T05:17:58;-11142.38;;;7.52;100.00
10145;BME280;5113;41.822;23.564;2023-05-02T05:21:04;-11152.47;;;7.89;100.00
10145;BME280;5113;41.822;23.564;2023-05-02T05:24:11;-11145.59;;;7.64;100.00
10145;BME280;5113;41.822;23.564;2023-05-02T05:27:18;-11142.50;;;7.53;100.00
10145;BME280;5113;41.822;23.564;2023-05-02T05:30:24;-11144.91;;;7.61;100.00
10145;BME280;5113;41.822;23.564;2023-05-02T05:33:30;-11156.56;;;8.04;100.00
10145;BME280;5113;41.822;23.564;2023-05-02T05:39:44;-11164.16;;;8.31;100.00
10145;BME280;5113;41.822;23.564;2023-05-02T05:42:52;-11161.06;;;8.20;100.00
10145;BME280;5113;41.822;23.564;2023-05-02T05:45:58;-11170.91;;;8.55;100.00
10145;BME280;5113;41.822;23.564;2023-05-02T05:49:05;-11193.81;;;9.38;100.00
10145;BME280;5113;41.822;23.564;2023-05-02T05:52:11;-11198.16;;;9.54;100.00
10145;BME280;5113;41.822;23.564;2023-05-02T05:55:17;-11191.69;;;9.31;100.00
10145;BME280;5113;41.822;23.564;2023-05-02T05:58:25;-11192.25;;;9.33;100.00
10145;BME280;5113;41.822;23.564;2023-05-02T06:01:31;-11207.44;;;9.87;100.00
10145;BME280;5113;41.822;23.564;2023-05-02T06:04:38;-11213.91;;;10.11;100.00
10145;BME280;5113;41.822;23.564;2023-05-02T06:07:44;-11182.84;;;8.99;100.00
10145;BME280;5113;41.822;23.564;2023-05-02T06:10:50;-11199.56;;;9.59;100.00
10145;BME280;5113;41.822;23.564;2023-05-02T06:13:58;-11227.69;;;10.61;100.00
10145;BME280;5113;41.822;23.564;2023-05-02T06:17:04;-11253.03;;;11.52;100.00
10145;BME280;5113;41.822;23.564;2023-05-02T06:20:11;-11265.84;;;11.98;100.00
10145;BME280;5113;41.822;23.564;2023-05-02T06:23:18;-11238.09;;;10.98;100.00
10145;BME280;5113;41.822;23.564;2023-05-02T06:26:24;-11220.66;;;10.35;100.00
10145;BME280;5113;41.822;23.564;2023-05-02T06:29:32;-11216.03;;;10.18;100.00
10145;BME280;5113;41.822;23.564;2023-05-02T06:32:38;-11216.59;;;10.20;100.00
10145;BME280;5113;41.822;23.564;2023-05-02T06:35:50;-11251.19;;;11.45;100.00
10145;BME280;5113;41.822;23.564;2023-05-02T06:38:56;-11284.84;;;12.67;100.00
10145;BME280;5113;41.822;23.564;2023-05-02T06:42:02;-11302.28;;;13.30;100.00
10145;BME280;5113;41.822;23.564;2023-05-02T06:45:11;-11260.34;;;11.78;100.00
10145;BME280;5113;41.822;23.564;2023-05-02T06:48:17;-11280.03;;;12.49;100.00
10145;BME280;5113;41.822;23.564;2023-05-02T06:51:23;-11261.88;;;11.84;100.00
10145;BME280;5113;41.822;23.564;2023-05-02T06:54:29;-11259.78;;;11.76;100.00
10145;BME280;5113;41.822;23.564;2023-05-02T06:57:35;-11279.19;;;12.46;100.00
10145;BME280;5113;41.822;23.564;2023-05-02T07:00:43;-11264.84;;;11.95;100.00
10145;BME280;5113;41.822;23.564;2023-05-02T07:03:50;-11264.84;;;11.95;100.00
10145;BME280;5113;41.822;23.564;2023-05-02T07:06:56;-11310.44;;;13.59;100.00
10145;BME280;5113;41.822;23.564;2023-05-02T07:10:03;-11318.47;;;13.88;100.00
10145;BME280;5113;41.822;23.564;2023-05-02T07:13:09;-11300.88;;;13.25;100.00
10145;BME280;5113;41.822;23.564;2023-05-02T07:16:16;-11301.72;;;13.28;100.00
10145;BME280;5113;41.822;23.564;2023-05-02T07:19:23;-11319.31;;;13.91;100.00
10145;BME280;5113;41.822;23.564;2023-05-02T07:22:29;-11308.47;;;13.52;100.00
10145;BME280;5113;41.822;23.564;2023-05-02T07:25:36;-11309.88;;;13.57;100.00
10145;BME280;5113;41.822;23.564;2023-05-02T07:28:43;-11324.25;;;14.09;100.00
10145;BME280;5113;41.822;23.564;2023-05-02T07:31:51;-11296.38;;;13.08;100.00
10145;BME280;5113;41.822;23.564;2023-05-02T07:34:58;-11330.88;;;14.33;100.00
10145;BME280;5113;41.822;23.564;2023-05-02T07:38:04;-11368.19;;;15.67;100.00
10145;BME280;5113;41.822;23.564;2023-05-02T07:41:12;-11367.34;;;15.64;100.00
10145;BME280;5113;41.822;23.564;2023-05-02T07:44:18;-11377.06;;;15.99;100.00
10145;BME280;5113;41.822;23.564;2023-05-02T07:47:26;-11369.03;;;15.70;100.00
10145;BME280;5113;41.822;23.564;2023-05-02T07:50:33;-11375.53;;;15.94;99.95
10145;BME280;5113;41.822;23.564;2023-05-02T07:53:39;-11370.88;;;15.77;100.00
10145;BME280;5113;41.822;23.564;2023-05-02T07:56:46;-11377.78;;;16.02;100.00
10145;BME280;5113;41.822;23.564;2023-05-02T07:59:52;-11436.13;;;18.12;66.72
10145;BME280;5113;41.822;23.564;2023-05-02T08:03:03;-11432.03;;;17.97;58.33
10145;BME280;5113;41.822;23.564;2023-05-02T08:06:11;-11424.72;;;17.71;59.21
10145;BME280;5113;41.822;23.564;2023-05-02T08:09:18;-11436.41;;;18.13;55.94
10145;BME280;5113;41.822;23.564;2023-05-02T08:12:24;-11435.84;;;18.11;56.53
10145;BME280;5113;41.822;23.564;2023-05-02T08:15:30;-11459.81;;;18.97;52.76
10145;BME280;5113;41.822;23.564;2023-05-02T08:18:38;-11449.22;;;18.59;51.60
10145;BME280;5113;41.822;23.564;2023-05-02T08:21:44;-11445.28;;;18.45;50.02
10145;BME280;5113;41.822;23.564;2023-05-02T08:24:50;-11442.63;;;18.35;51.12
10145;BME280;5113;41.822;23.564;2023-05-02T08:27:56;-11433.03;;;18.01;50.18
10145;BME280;5113;41.822;23.564;2023-05-02T08:31:02;-11458.41;;;18.92;51.78
10145;BME280;5113;41.822;23.564;2023-05-02T08:34:10;-11460.25;;;18.99;46.31
10145;BME280;5113;41.822;23.564;2023-05-02T08:37:16;-11454.75;;;18.79;46.86
10145;BME280;5113;41.822;23.564;2023-05-02T08:40:23;-11467.44;;;19.25;46.91
10145;BME280;5113;41.822;23.564;2023-05-02T08:43:46;-11469.25;;;19.31;47.73
10145;BME280;5113;41.822;23.564;2023-05-02T08:46:53;-11463.34;;;19.10;46.04
10145;BME280;5113;41.822;23.564;2023-05-02T08:50:02;-11464.88;;;19.16;46.96
10145;BME280;5113;41.822;23.564;2023-05-02T08:53:10;-11458.41;;;18.92;46.24
10145;BME280;5113;41.822;23.564;2023-05-02T08:56:17;-11475.06;;;19.52;45.49
10145;BME280;5113;41.822;23.564;2023-05-02T08:59:23;-11470.81;;;19.37;44.32
10145;BME280;5113;41.822;23.564;2023-05-02T09:02:50;-11468.84;;;19.30;43.19
10145;BME280;5113;41.822;23.564;2023-05-02T09:06:07;-11489.44;;;20.04;43.06
10145;BME280;5113;41.822;23.564;2023-05-02T09:09:14;-11477.31;;;19.60;45.01
10145;BME280;5113;41.822;23.564;2023-05-02T09:12:24;-11471.66;;;19.40;44.28
10145;BME280;5113;41.822;23.564;2023-05-02T09:15:31;-11472.78;;;19.44;42.43
10145;BME280;5113;41.822;23.564;2023-05-02T09:18:39;-11484.91;;;19.88;44.16
10145;BME280;5113;41.822;23.564;2023-05-02T09:21:47;-11473.91;;;19.48;43.78
10145;BME280;5113;41.822;23.564;2023-05-02T09:24:54;-11483.50;;;19.83;42.88
10145;BME280;5113;41.822;23.564;2023-05-02T09:28:01;-11487.19;;;19.96;41.85
10145;BME280;5113;41.822;23.564;2023-05-02T09:31:09;-11479.56;;;19.68;42.89
10145;BME280;5113;41.822;23.564;2023-05-02T09:34:16;-11479.41;;;19.68;41.15
10145;BME280;5113;41.822;23.564;2023-05-02T09:37:37;-11482.25;;;19.78;42.00
10145;BME280;5113;41.822;23.564;2023-05-02T09:40:52;-11480.41;;;19.71;42.81
10145;BME280;5113;41.822;23.564;2023-05-02T09:43:59;-11486.19;;;19.92;42.14
10145;BME280;5113;41.822;23.564;2023-05-02T09:47:06;-11493.53;;;20.19;41.19
10145;BME280;5113;41.822;23.564;2023-05-02T09:50:31;-11500.44;;;20.43;41.96
10145;BME280;5113;41.822;23.564;2023-05-02T09:53:43;-11489.16;;;20.03;40.09
10145;BME280;5113;41.822;23.564;2023-05-02T09:56:53;-11512.28;;;20.86;39.78
10145;BME280;5113;41.822;23.564;2023-05-02T10:00:01;-11500.16;;;20.42;41.79
10145;BME280;5113;41.822;23.564;2023-05-02T10:03:07;-11501.28;;;20.47;39.63
10145;BME280;5113;41.822;23.564;2023-05-02T10:06:15;-11506.50;;;20.65;40.57
10145;BME280;5113;41.822;23.564;2023-05-02T10:09:24;-11485.91;;;19.91;41.07
10145;BME280;5113;41.822;23.564;2023-05-02T10:12:32;-11519.91;;;21.14;39.66
10145;BME280;5113;41.822;23.564;2023-05-02T10:15:42;-11513.13;;;20.89;40.19
10145;BME280;5113;41.822;23.564;2023-05-02T10:18:58;-11523.28;;;21.26;40.68
10145;BME280;5113;41.822;23.564;2023-05-02T10:22:08;-11488.31;;;20.00;40.86
10145;BME280;5113;41.822;23.564;2023-05-02T10:25:17;-11517.50;;;21.05;38.57
10145;BME280;5113;41.822;23.564;2023-05-02T10:28:25;-11496.47;;;20.29;41.54
10145;BME280;5113;41.822;23.564;2023-05-02T10:31:33;-11538.53;;;21.81;39.94
10145;BME280;5113;41.822;23.564;2023-05-02T10:34:40;-11526.94;;;21.39;39.71
10145;BME280;5113;41.822;23.564;2023-05-02T10:37:47;-11534.00;;;21.64;39.12
10145;BME280;5113;41.822;23.564;2023-05-02T10:40:59;-11546.44;;;22.09;39.79
10145;BME280;5113;41.822;23.564;2023-05-02T10:44:06;-11519.06;;;21.10;40.62
10145;BME280;5113;41.822;23.564;2023-05-02T10:47:19;-11545.00;;;22.04;39.44
10145;BME280;5113;41.822;23.564;2023-05-02T10:50:41;-11521.16;;;21.18;38.13
10145;BME280;5113;41.822;23.564;2023-05-02T10:53:48;-11529.78;;;21.49;38.96
10145;BME280;5113;41.822;23.564;2023-05-02T10:57:03;-11529.50;;;21.48;38.27
10145;BME280;5113;41.822;23.564;2023-05-02T11:00:22;-11548.53;;;22.17;38.33
10145;BME280;5113;41.822;23.564;2023-05-02T11:03:53;-11553.06;;;22.33;37.87
10145;BME280;5113;41.822;23.564;2023-05-02T11:07:21;-11556.59;;;22.46;38.62
10145;BME280;5113;41.822;23.564;2023-05-02T11:10:28;-11533.03;;;21.61;40.23
10145;BME280;5113;41.822;23.564;2023-05-02T11:13:50;-11547.97;;;22.15;38.18
10145;BME280;5113;41.822;23.564;2023-05-02T11:17:09;-11551.09;;;22.26;38.87
10145;BME280;5113;41.822;23.564;2023-05-02T11:20:17;-11548.69;;;22.17;37.64
10145;BME280;5113;41.822;23.564;2023-05-02T11:23:24;-11547.41;;;22.13;36.10
10145;BME280;5113;41.822;23.564;2023-05-02T11:26:31;-11523.16;;;21.25;38.46
10145;BME280;5113;41.822;23.564;2023-05-02T11:29:56;-11500.84;;;20.45;38.90
10145;BME280;5113;41.822;23.564;2023-05-02T11:33:16;-11535.13;;;21.68;37.63
10145;BME280;5113;41.822;23.564;2023-05-02T11:36:27;-11523.56;;;21.27;38.20
10145;BME280;5113;41.822;23.564;2023-05-02T11:39:34;-11543.75;;;21.99;36.69
10145;BME280;5113;41.822;23.564;2023-05-02T11:42:41;-11516.22;;;21.00;37.80
10145;BME280;5113;41.822;23.564;2023-05-02T11:45:48;-11520.31;;;21.15;37.36
10145;BME280;5113;41.822;23.564;2023-05-02T11:48:55;-11510.72;;;20.81;38.23
10145;BME280;5113;41.822;23.564;2023-05-02T11:52:04;-11526.66;;;21.38;36.04
10145;BME280;5113;41.822;23.564;2023-05-02T11:55:12;-11539.66;;;21.85;34.15
10145;BME280;5113;41.822;23.564;2023-05-02T11:58:20;-11526.13;;;21.36;36.82
10145;BME280;5113;41.822;23.564;2023-05-02T12:01:28;-11525.25;;;21.33;36.18
10145;BME280;5113;41.822;23.564;2023-05-02T12:04:41;-11554.06;;;22.36;34.36
10145;BME280;5113;41.822;23.564;2023-05-02T12:07:47;-11528.94;;;21.46;36.67
10145;BME280;5113;41.822;23.564;2023-05-02T12:10:54;-11508.34;;;20.72;36.49
10145;BME280;5113;41.822;23.564;2023-05-02T12:14:02;-11507.78;;;20.70;36.25
10145;BME280;5113;41.822;23.564;2023-05-02T12:17:10;-11533.16;;;21.61;34.79
10145;BME280;5113;41.822;23.564;2023-05-02T12:20:17;-11517.50;;;21.05;35.84
10145;BME280;5113;41.822;23.564;2023-05-02T12:23:24;-11536.97;;;21.75;34.14
10145;BME280;5113;41.822;23.564;2023-05-02T12:26:31;-11555.59;;;22.42;32.31
10145;BME280;5113;41.822;23.564;2023-05-02T12:29:38;-11576.06;;;23.16;34.36
10145;BME280;5113;41.822;23.564;2023-05-02T12:32:55;-11537.97;;;21.79;33.37
10145;BME280;5113;41.822;23.564;2023-05-02T12:36:05;-11544.88;;;22.03;34.56
10145;BME280;5113;41.822;23.564;2023-05-02T12:39:13;-11590.59;;;23.68;32.24
10145;BME280;5113;41.822;23.564;2023-05-02T12:42:21;-11563.22;;;22.69;32.54
10145;BME280;5113;41.822;23.564;2023-05-02T12:45:27;-11571.69;;;23.00;33.34
10145;BME280;5113;41.822;23.564;2023-05-02T12:48:38;-11570.97;;;22.97;32.87
10145;BME280;5113;41.822;23.564;2023-05-02T12:51:51;-11547.97;;;22.15;33.17
10145;BME280;5113;41.822;23.564;2023-05-02T12:55:14;-11577.47;;;23.21;31.57
10145;BME280;5113;41.822;23.564;2023-05-02T12:58:20;-11554.63;;;22.38;31.19
10145;BME280;5113;41.822;23.564;2023-05-02T13:01:29;-11559.97;;;22.58;32.56
10145;BME280;5113;41.822;23.564;2023-05-02T13:04:37;-11578.59;;;23.25;33.81
10145;BME280;5113;41.822;23.564;2023-05-02T13:07:44;-11573.25;;;23.05;32.53
10145;BME280;5113;41.822;23.564;2023-05-02T13:10:51;-11584.81;;;23.47;32.79
10145;BME280;5113;41.822;23.564;2023-05-02T13:13:57;-11578.31;;;23.24;33.74
10145;BME280;5113;41.822;23.564;2023-05-02T13:17:05;-11588.34;;;23.60;33.08
10145;BME280;5113;41.822;23.564;2023-05-02T13:20:14;-11574.78;;;23.11;32.20
10145;BME280;5113;41.822;23.564;2023-05-02T13:23:20;-11583.69;;;23.43;31.40
10145;BME280;5113;41.822;23.564;2023-05-02T13:26:26;-11566.31;;;22.81;31.94
10145;BME280;5113;41.822;23.564;2023-05-02T13:29:32;-11566.19;;;22.80;31.48
10145;BME280;5113;41.822;23.564;2023-05-02T13:32:38;-11584.66;;;23.47;31.97
10145;BME280;5113;41.822;23.564;2023-05-02T13:35:46;-11578.31;;;23.24;32.00
10145;BME280;5113;41.822;23.564;2023-05-02T13:38:52;-11577.91;;;23.22;31.52
10145;BME280;5113;41.822;23.564;2023-05-02T13:41:58;-11557.72;;;22.50;31.93
10145;BME280;5113;41.822;23.564;2023-05-02T13:45:08;-11579.72;;;23.29;32.98
10145;BME280;5113;41.822;23.564;2023-05-02T13:48:14;-11580.16;;;23.30;32.89
10145;BME280;5113;41.822;23.564;2023-05-02T13:51:21;-11583.97;;;23.44;31.90
10145;BME280;5113;41.822;23.564;2023-05-02T13:54:28;-11589.34;;;23.63;32.92
10145;BME280;5113;41.822;23.564;2023-05-02T13:57:34;-11571.97;;;23.01;33.22
10145;BME280;5113;41.822;23.564;2023-05-02T14:00:41;-11572.69;;;23.03;34.06
10145;BME280;5113;41.822;23.564;2023-05-02T14:03:47;-11576.75;;;23.18;33.74
10145;BME280;5113;41.822;23.564;2023-05-02T14:06:55;-11584.25;;;23.45;34.10
10145;BME280;5113;41.822;23.564;2023-05-02T14:10:01;-11582.69;;;23.39;33.76
10145;BME280;5113;41.822;23.564;2023-05-02T14:13:08;-11567.88;;;22.86;34.35
10145;BME280;5113;41.822;23.564;2023-05-02T14:16:14;-11587.63;;;23.57;34.37
10145;BME280;5113;41.822;23.564;2023-05-02T14:19:20;-11600.91;;;24.05;33.49
10145;BME280;5113;41.822;23.564;2023-05-02T14:22:27;-11566.47;;;22.81;33.98
10145;BME280;5113;41.822;23.564;2023-05-02T14:25:34;-11603.72;;;24.15;32.62
10145;BME280;5113;41.822;23.564;2023-05-02T14:28:40;-11595.53;;;23.86;32.72
10145;BME280;5113;41.822;23.564;2023-05-02T14:31:46;-11570.97;;;22.97;32.33
10145;BME280;5113;41.822;23.564;2023-05-02T14:38:00;-11543.31;;;21.98;33.95
10145;BME280;5113;41.822;23.564;2023-05-02T14:41:05;-11547.69;;;22.14;34.65
10145;BME280;5113;41.822;23.564;2023-05-02T14:44:11;-11551.94;;;22.29;34.47
10145;BME280;5113;41.822;23.564;2023-05-02T14:47:18;-11559.13;;;22.55;33.64
10145;BME280;5113;41.822;23.564;2023-05-02T14:50:24;-11581.28;;;23.34;32.29
10145;BME280;5113;41.822;23.564;2023-05-02T14:53:33;-11547.97;;;22.15;34.86
10145;BME280;5113;41.822;23.564;2023-05-02T14:56:39;-11510.03;;;20.78;35.82
10145;BME280;5113;41.822;23.564;2023-05-02T14:59:45;-11507.63;;;20.69;35.18
10145;BME280;5113;41.822;23.564;2023-05-02T15:02:52;-11574.94;;;23.12;32.87
10145;BME280;5113;41.822;23.564;2023-05-02T15:05:58;-11606.28;;;24.24;31.91
10145;BME280;5113;41.822;23.564;2023-05-02T15:09:06;-11605.13;;;24.20;31.59
10145;BME280;5113;41.822;23.564;2023-05-02T15:12:13;-11614.75;;;24.55;31.39
10145;BME280;5113;41.822;23.564;2023-05-02T15:15:19;-11529.63;;;21.49;33.23
10145;BME280;5113;41.822;23.564;2023-05-02T15:18:29;-11478.44;;;19.64;35.19
10145;BME280;5113;41.822;23.564;2023-05-02T15:21:36;-11480.13;;;19.70;36.93
10145;BME280;5113;41.822;23.564;2023-05-02T15:24:44;-11482.09;;;19.77;36.68
10145;BME280;5113;41.822;23.564;2023-05-02T15:27:50;-11471.81;;;19.40;37.72
10145;BME280;5113;41.822;23.564;2023-05-02T15:30:56;-11472.22;;;19.42;37.01
10145;BME280;5113;41.822;23.564;2023-05-02T15:34:03;-11466.88;;;19.23;37.25
10145;BME280;5113;41.822;23.564;2023-05-02T15:37:09;-11464.47;;;19.14;38.05
10145;BME280;5113;41.822;23.564;2023-05-02T15:40:17;-11455.31;;;18.81;37.46
10145;BME280;5113;41.822;23.564;2023-05-02T15:43:24;-11459.97;;;18.98;36.85
10145;BME280;5113;41.822;23.564;2023-05-02T15:46:30;-11446.41;;;18.49;38.72
10145;BME280;5113;41.822;23.564;2023-05-02T15:49:36;-11454.03;;;18.76;37.43
10145;BME280;5113;41.822;23.564;2023-05-02T15:52:42;-11455.03;;;18.80;38.37
10145;BME280;5113;41.822;23.564;2023-05-02T15:55:50;-11451.63;;;18.68;39.21
10145;BME280;5113;41.822;23.564;2023-05-02T15:58:57;-11446.28;;;18.48;37.73
10145;BME280;5113;41.822;23.564;2023-05-02T16:02:03;-11443.19;;;18.37;38.88
10145;BME280;5113;41.822;23.564;2023-05-02T16:05:10;-11438.94;;;18.22;39.28
10145;BME280;5113;41.822;23.564;2023-05-02T16:08:16;-11434.16;;;18.05;38.65
10145;BME280;5113;41.822;23.564;2023-05-02T16:11:24;-11435.13;;;18.08;39.02
10145;BME280;5113;41.822;23.564;2023-05-02T16:14:30;-11431.63;;;17.96;38.65
10145;BME280;5113;41.822;23.564;2023-05-02T16:17:36;-11427.66;;;17.81;38.47
10145;BME280;5113;41.822;23.564;2023-05-02T16:20:43;-11429.09;;;17.87;38.33
10145;BME280;5113;41.822;23.564;2023-05-02T16:23:52;-11428.25;;;17.84;38.05
10145;BME280;5113;41.822;23.564;2023-05-02T16:27:00;-11425.69;;;17.74;38.35
10145;BME280;5113;41.822;23.564;2023-05-02T16:30:07;-11422.31;;;17.62;39.93
10145;BME280;5113;41.822;23.564;2023-05-02T16:33:14;-11417.78;;;17.46;40.60